Time;durP1;ratioP1;P1;durP2;ratioP2;P2;SDS_P1;SDS_P2;PMS_P1;PMS_P2;Temp;Humidity;BMP_temperature;BMP_pressure;BME280_temperature;BME280_humidity;BME280_pressure;Samples;Min_cycle;Max_cycle;Signal;HPM_P1;HPM_P2
2023/04/09 00:00:38;;;;;;;53.65;21.67;;;;;;;;;;4921001;29;20048;-78
2023/04/09 00:03:11;;;;;;;59.17;22.50;;;;;;;;;;4913179;29;20052;-79
2023/04/09 00:05:39;;;;;;;56.97;22.45;;;;;;;;;;4914082;29;20040;-79
2023/04/09 00:08:06;;;;;;;56.13;22.77;;;;;;;;;;4913490;29;20099;-79
2023/04/09 00:10:32;;;;;;;55.92;21.60;;;;;;;;;;4913781;29;20136;-78
2023/04/09 00:12:59;;;;;;;55.33;22.85;;;;;;;;;;4917027;29;20407;-78
2023/04/09 00:15:25;;;;;;;58.05;23.67;;;;;;;;;;4916959;29;20063;-80
2023/04/09 00:17:57;;;;;;;52.60;21.45;;;;;;;;;;4918223;29;20060;-78
2023/04/09 00:20:24;;;;;;;54.38;21.85;;;;;;;;;;4919071;29;20059;-79
2023/04/09 00:22:51;;;;;;;51.17;21.35;;;;;;;;;;4922705;29;20139;-81
2023/04/09 00:25:18;;;;;;;54.65;22.23;;;;;;;;;;4903522;29;20119;-79
2023/04/09 00:27:45;;;;;;;58.88;23.05;;;;;;;;;;4918582;29;20476;-79
2023/04/09 00:30:14;;;;;;;59.10;23.17;;;;;;;;;;4917997;29;20072;-80
2023/04/09 00:32:41;;;;;;;60.60;23.45;;;;;;;;;;4919327;29;20044;-80
2023/04/09 00:35:08;;;;;;;55.17;22.75;;;;;;;;;;4917245;29;20543;-79
2023/04/09 00:37:34;;;;;;;59.47;22.65;;;;;;;;;;4919024;29;20469;-78
2023/04/09 00:40:01;;;;;;;60.28;23.05;;;;;;;;;;4903480;29;20068;-79
2023/04/09 00:42:33;;;;;;;71.20;26.88;;;;;;;;;;4902895;29;20052;-79
2023/04/09 00:45:02;;;;;;;63.67;25.33;;;;;;;;;;4918534;29;20047;-79
2023/04/09 00:47:29;;;;;;;68.82;26.45;;;;;;;;;;4918742;29;20044;-80
2023/04/09 00:49:58;;;;;;;67.85;25.33;;;;;;;;;;4918706;29;20326;-79
2023/04/09 00:52:24;;;;;;;69.22;27.20;;;;;;;;;;4920156;29;20500;-80
2023/04/09 00:54:51;;;;;;;68.05;24.52;;;;;;;;;;4919351;29;20045;-79
2023/04/09 00:57:18;;;;;;;65.60;25.83;;;;;;;;;;4919613;29;20064;-79
2023/04/09 00:59:44;;;;;;;70.68;26.55;;;;;;;;;;4916867;29;20100;-79
2023/04/09 01:02:11;;;;;;;65.95;25.95;;;;;;;;;;4917141;29;20112;-78
2023/04/09 01:04:40;;;;;;;68.18;25.35;;;;;;;;;;4926406;29;20541;-80
2023/04/09 01:07:22;;;;;;;69.65;25.77;;;;;;;;;;4918561;29;20072;-80
2023/04/09 01:10:03;;;;;;;73.55;27.77;;;;;;;;;;4900984;29;20052;-79
2023/04/09 01:12:49;;;;;;;64.15;25.63;;;;;;;;;;4901785;29;20040;-79
2023/04/09 01:15:22;;;;;;;68.30;25.10;;;;;;;;;;4914552;29;20048;-79
2023/04/09 01:17:51;;;;;;;63.13;24.98;;;;;;;;;;4907222;29;20055;-79
2023/04/09 01:20:30;;;;;;;61.15;25.30;;;;;;;;;;4920699;29;20048;-80
2023/04/09 01:23:00;;;;;;;63.90;23.77;;;;;;;;;;4904679;29;20050;-80
2023/04/09 01:25:37;;;;;;;66.75;26.88;;;;;;;;;;4930263;29;20103;-80
2023/04/09 01:28:10;;;;;;;66.60;24.88;;;;;;;;;;4951735;29;20035;-76
2023/04/09 01:30:37;;;;;;;63.83;26.13;;;;;;;;;;4936754;29;20092;-76
2023/04/09 01:33:04;;;;;;;65.93;24.80;;;;;;;;;;4937726;29;20043;-77
2023/04/09 01:35:31;;;;;;;63.25;25.90;;;;;;;;;;4950069;29;20043;-78
2023/04/09 01:37:59;;;;;;;64.82;25.65;;;;;;;;;;4937355;29;20112;-78
2023/04/09 01:40:26;;;;;;;71.53;26.50;;;;;;;;;;4937760;29;20046;-79
2023/04/09 01:42:53;;;;;;;69.93;26.40;;;;;;;;;;4936151;29;20059;-80
2023/04/09 01:45:19;;;;;;;72.43;27.27;;;;;;;;;;4936697;29;20385;-78
2023/04/09 01:47:46;;;;;;;67.53;26.63;;;;;;;;;;4936146;29;20135;-78
2023/04/09 01:50:14;;;;;;;67.72;25.40;;;;;;;;;;4935843;29;20108;-79
2023/04/09 01:52:40;;;;;;;64.05;24.58;;;;;;;;;;4937314;29;20051;-79
2023/04/09 01:55:07;;;;;;;71.65;24.80;;;;;;;;;;4933324;29;20043;-80
2023/04/09 01:57:34;;;;;;;68.18;25.30;;;;;;;;;;4935867;29;20031;-76
2023/04/09 02:00:02;;;;;;;67.57;25.20;;;;;;;;;;4934719;29;20055;-77
2023/04/09 02:03:01;;;;;;;65.90;23.67;;;;;;;;;;4936554;29;20046;-79
2023/04/09 02:05:30;;;;;;;66.38;24.95;;;;;;;;;;4922686;29;20079;-79
2023/04/09 02:07:59;;;;;;;65.55;24.83;;;;;;;;;;4918060;29;20048;-80
2023/04/09 02:10:28;;;;;;;63.17;23.90;;;;;;;;;;4934380;29;20079;-78
2023/04/09 02:12:56;;;;;;;61.33;23.85;;;;;;;;;;4935491;29;20348;-79
2023/04/09 02:15:23;;;;;;;59.28;24.30;;;;;;;;;;4917281;29;20155;-80
2023/04/09 02:17:49;;;;;;;61.78;23.67;;;;;;;;;;4933962;29;20048;-77
2023/04/09 02:20:17;;;;;;;60.13;23.20;;;;;;;;;;4934900;29;20058;-80
2023/04/09 02:22:45;;;;;;;59.70;22.20;;;;;;;;;;4906988;29;20476;-80
2023/04/09 02:25:11;;;;;;;58.78;23.58;;;;;;;;;;4925262;29;20043;-80
2023/04/09 02:27:38;;;;;;;68.90;24.13;;;;;;;;;;4913277;29;20059;-78
2023/04/09 02:30:05;;;;;;;55.80;21.85;;;;;;;;;;4897892;29;20086;-78
2023/04/09 02:32:31;;;;;;;62.85;23.65;;;;;;;;;;4914017;29;20040;-78
2023/04/09 02:34:58;;;;;;;57.97;23.77;;;;;;;;;;4913655;29;20048;-80
2023/04/09 02:37:25;;;;;;;62.30;23.63;;;;;;;;;;4897599;29;20066;-79
2023/04/09 02:39:51;;;;;;;67.60;23.90;;;;;;;;;;4914353;29;20048;-79
2023/04/09 02:42:19;;;;;;;62.40;23.98;;;;;;;;;;4914629;29;20064;-78
2023/04/09 02:44:45;;;;;;;57.10;22.95;;;;;;;;;;4913494;29;20085;-80
2023/04/09 02:47:12;;;;;;;56.53;22.65;;;;;;;;;;4896857;29;20044;-77
2023/04/09 02:49:39;;;;;;;59.50;23.33;;;;;;;;;;4896344;29;20103;-78
2023/04/09 02:52:08;;;;;;;63.40;23.70;;;;;;;;;;4897809;29;20044;-80
2023/04/09 02:54:34;;;;;;;56.50;22.70;;;;;;;;;;4915458;29;20103;-79
2023/04/09 02:57:01;;;;;;;57.80;22.67;;;;;;;;;;4914047;29;20063;-80
2023/04/09 02:59:27;;;;;;;58.90;22.27;;;;;;;;;;4894798;29;20048;-78
2023/04/09 03:01:54;;;;;;;60.20;22.60;;;;;;;;;;4919462;29;20059;-78
2023/04/09 03:04:21;;;;;;;63.95;23.45;;;;;;;;;;4926757;29;20521;-80
2023/04/09 03:06:47;;;;;;;59.65;23.35;;;;;;;;;;4921957;29;20048;-78
2023/04/09 03:09:14;;;;;;;55.78;22.75;;;;;;;;;;4916299;29;20051;-79
2023/04/09 03:11:40;;;;;;;60.28;23.17;;;;;;;;;;4900918;29;20108;-80
2023/04/09 03:14:07;;;;;;;60.55;23.77;;;;;;;;;;4918010;29;20054;-78
2023/04/09 03:16:36;;;;;;;61.47;24.17;;;;;;;;;;4915612;29;20048;-79
2023/04/09 03:19:04;;;;;;;64.28;23.48;;;;;;;;;;4898266;29;20329;-79
2023/04/09 03:21:32;;;;;;;68.35;24.85;;;;;;;;;;4884421;29;20054;-79
2023/04/09 03:23:58;;;;;;;64.80;24.00;;;;;;;;;;4921853;29;20453;-79
2023/04/09 03:26:25;;;;;;;60.25;23.15;;;;;;;;;;4917111;29;20074;-79
2023/04/09 03:28:51;;;;;;;69.78;24.23;;;;;;;;;;4933232;29;20130;-79
2023/04/09 03:31:18;;;;;;;60.67;22.95;;;;;;;;;;4919566;29;20054;-78
2023/04/09 03:33:45;;;;;;;55.55;21.77;;;;;;;;;;4944423;29;20393;-78
2023/04/09 03:36:12;;;;;;;62.78;23.65;;;;;;;;;;4937874;29;20066;-78
2023/04/09 03:39:11;;;;;;;68.43;23.92;;;;;;;;;;4917764;29;20044;-79
2023/04/09 03:41:41;;;;;;;65.00;24.38;;;;;;;;;;4917189;29;20048;-78
2023/04/09 03:44:12;;;;;;;62.30;24.33;;;;;;;;;;4931691;29;20055;-78
2023/04/09 03:46:53;;;;;;;56.75;22.92;;;;;;;;;;4931063;29;20055;-78
2023/04/09 03:49:20;;;;;;;57.97;22.20;;;;;;;;;;4928759;29;20059;-78
2023/04/09 03:51:46;;;;;;;65.05;23.70;;;;;;;;;;4914412;29;20586;-79
2023/04/09 03:54:13;;;;;;;79.35;27.30;;;;;;;;;;4927326;29;20071;-78
2023/04/09 03:56:40;;;;;;;109.00;28.90;;;;;;;;;;4910480;29;20051;-77
2023/04/09 03:59:10;;;;;;;106.95;29.48;;;;;;;;;;4910401;29;20565;-80
2023/04/09 04:01:39;;;;;;;119.75;27.55;;;;;;;;;;4911735;29;20044;-79
2023/04/09 04:04:06;;;;;;;85.30;27.80;;;;;;;;;;4911857;29;20059;-79
2023/04/09 04:06:40;;;;;;;87.70;27.13;;;;;;;;;;4904666;29;20050;-79
2023/04/09 04:09:19;;;;;;;81.30;28.58;;;;;;;;;;4912609;29;20497;-79
2023/04/09 04:12:03;;;;;;;77.30;27.25;;;;;;;;;;4911966;29;20052;-80
2023/04/09 04:14:52;;;;;;;77.03;28.08;;;;;;;;;;4893690;29;20056;-78
2023/04/09 04:17:29;;;;;;;88.75;30.42;;;;;;;;;;4912226;29;20051;-79
2023/04/09 04:19:58;;;;;;;84.78;29.35;;;;;;;;;;4928676;29;20044;-80
2023/04/09 04:22:25;;;;;;;87.45;28.80;;;;;;;;;;4921906;29;20509;-80
2023/04/09 04:24:56;;;;;;;84.28;29.58;;;;;;;;;;4908097;29;20044;-79
2023/04/09 04:27:24;;;;;;;94.43;32.10;;;;;;;;;;4914102;29;20047;-78
2023/04/09 04:29:51;;;;;;;89.85;30.25;;;;;;;;;;4930984;29;20058;-79
2023/04/09 04:32:37;;;;;;;79.18;29.52;;;;;;;;;;4931706;29;20066;-80
2023/04/09 04:35:11;;;;;;;78.43;29.17;;;;;;;;;;4929787;29;20074;-80
2023/04/09 04:37:39;;;;;;;91.18;30.02;;;;;;;;;;4911124;29;20040;-80
2023/04/09 04:40:07;;;;;;;88.50;30.05;;;;;;;;;;4911311;29;20468;-79
2023/04/09 04:42:38;;;;;;;82.82;28.92;;;;;;;;;;4925427;29;20075;-81
2023/04/09 04:45:09;;;;;;;84.28;29.17;;;;;;;;;;4919243;29;20058;-79
2023/04/09 04:47:49;;;;;;;84.18;31.08;;;;;;;;;;4928095;29;20064;-79
2023/04/09 04:50:16;;;;;;;100.45;32.28;;;;;;;;;;4917535;29;20532;-79
2023/04/09 04:52:57;;;;;;;92.85;32.22;;;;;;;;;;4915983;29;20040;-77
2023/04/09 04:55:27;;;;;;;92.70;33.20;;;;;;;;;;4929637;29;20043;-78
2023/04/09 04:57:54;;;;;;;92.57;33.63;;;;;;;;;;4915520;29;20058;-78
2023/04/09 05:00:24;;;;;;;97.55;35.10;;;;;;;;;;4917461;29;20590;-79
2023/04/09 05:02:50;;;;;;;101.28;36.47;;;;;;;;;;4919273;29;20516;-80
2023/04/09 05:05:40;;;;;;;92.97;32.85;;;;;;;;;;4931164;29;20514;-79
2023/04/09 05:08:08;;;;;;;95.32;35.42;;;;;;;;;;4921165;29;20076;-79
2023/04/09 05:10:40;;;;;;;102.60;37.90;;;;;;;;;;4935984;29;20043;-79
2023/04/09 05:13:06;;;;;;;94.20;36.00;;;;;;;;;;4935945;29;20515;-79
2023/04/09 05:15:41;;;;;;;98.32;36.05;;;;;;;;;;4918459;29;20056;-80
2023/04/09 05:18:09;;;;;;;99.18;35.97;;;;;;;;;;4935950;29;20524;-81
2023/04/09 05:20:36;;;;;;;86.22;33.20;;;;;;;;;;4919532;29;20063;-79
2023/04/09 05:23:09;;;;;;;87.63;32.78;;;;;;;;;;4908838;29;20048;-80
2023/04/09 05:25:39;;;;;;;90.72;34.88;;;;;;;;;;4900589;29;20040;-81
2023/04/09 05:28:12;;;;;;;93.85;33.50;;;;;;;;;;4917910;29;20051;-79
2023/04/09 05:30:40;;;;;;;103.15;35.60;;;;;;;;;;4916579;29;20064;-81
2023/04/09 05:33:07;;;;;;;96.25;33.08;;;;;;;;;;4903824;29;20404;-81
2023/04/09 05:35:37;;;;;;;99.88;34.35;;;;;;;;;;4911556;29;20538;-80
2023/04/09 05:38:06;;;;;;;99.95;36.00;;;;;;;;;;4902629;29;20044;-78
2023/04/09 05:40:34;;;;;;;107.85;36.30;;;;;;;;;;4924172;29;20084;-79
2023/04/09 05:43:04;;;;;;;102.70;34.63;;;;;;;;;;4899652;29;20051;-80
2023/04/09 05:45:38;;;;;;;112.93;35.03;;;;;;;;;;4929051;29;20047;-78
2023/04/09 05:48:07;;;;;;;90.47;34.40;;;;;;;;;;4904014;29;20804;-80
2023/04/09 05:50:33;;;;;;;97.53;33.70;;;;;;;;;;4930949;29;20059;-78
2023/04/09 05:53:19;;;;;;;;;;;;;;;;;;4928494;29;20079;-78
2023/04/09 05:55:50;;;;;;;79.82;27.85;;;;;;;;;;4928081;29;19927;-78
2023/04/09 05:58:21;;;;;;;78.18;28.45;;;;;;;;;;4931626;29;20044;-79
2023/04/09 06:00:50;;;;;;;94.07;29.45;;;;;;;;;;4917525;29;20222;-78
2023/04/09 06:03:16;;;;;;;79.07;29.15;;;;;;;;;;4909871;29;20131;-77
2023/04/09 06:05:47;;;;;;;89.75;30.00;;;;;;;;;;4925852;29;20048;-78
2023/04/09 06:08:13;;;;;;;76.95;28.73;;;;;;;;;;4919644;29;20110;-78
2023/04/09 06:10:40;;;;;;;79.65;28.77;;;;;;;;;;4923562;29;20052;-79
2023/04/09 06:13:08;;;;;;;80.47;29.70;;;;;;;;;;4909868;29;20138;-76
2023/04/09 06:15:36;;;;;;;79.43;28.73;;;;;;;;;;4900351;29;20048;-77
2023/04/09 06:18:03;;;;;;;81.85;28.98;;;;;;;;;;4925229;29;20051;-80
2023/04/09 06:20:30;;;;;;;87.15;30.58;;;;;;;;;;4912458;29;20056;-79
2023/04/09 06:22:57;;;;;;;80.65;29.65;;;;;;;;;;4913368;29;20099;-78
2023/04/09 06:25:26;;;;;;;83.88;28.83;;;;;;;;;;4922346;29;20048;-78
2023/04/09 06:27:52;;;;;;;74.07;28.98;;;;;;;;;;4923014;29;20070;-78
2023/04/09 06:30:19;;;;;;;80.53;30.33;;;;;;;;;;4917455;29;20217;-79
2023/04/09 06:32:47;;;;;;;85.50;30.48;;;;;;;;;;4914512;29;20063;-79
2023/04/09 06:35:20;;;;;;;72.78;29.45;;;;;;;;;;4894804;29;20147;-80
2023/04/09 06:37:47;;;;;;;79.03;30.13;;;;;;;;;;4903385;29;20086;-79
2023/04/09 06:40:13;;;;;;;73.68;29.20;;;;;;;;;;4898663;29;20243;-77
2023/04/09 06:42:40;;;;;;;70.93;27.52;;;;;;;;;;4898523;29;20052;-78
2023/04/09 06:45:21;;;;;;;79.88;29.00;;;;;;;;;;4895445;29;20044;-78
2023/04/09 06:47:48;;;;;;;67.35;27.58;;;;;;;;;;4916018;29;20440;-78
2023/04/09 06:50:14;;;;;;;70.25;28.08;;;;;;;;;;4923505;29;20047;-79
2023/04/09 06:52:41;;;;;;;65.75;26.40;;;;;;;;;;4920354;29;20052;-80
2023/04/09 06:55:08;;;;;;;66.68;27.17;;;;;;;;;;4916688;29;20072;-78
2023/04/09 06:57:34;;;;;;;72.85;27.27;;;;;;;;;;4921501;29;20100;-76
2023/04/09 07:00:01;;;;;;;70.32;27.05;;;;;;;;;;4913460;29;20048;-78
2023/04/09 07:02:27;;;;;;;72.47;24.73;;;;;;;;;;4919474;29;20058;-78
2023/04/09 07:04:54;;;;;;;65.43;25.55;;;;;;;;;;4920357;29;20194;-78
2023/04/09 07:07:21;;;;;;;63.45;25.00;;;;;;;;;;4917372;29;20051;-78
2023/04/09 07:09:51;;;;;;;60.75;25.98;;;;;;;;;;4915205;29;20066;-78
2023/04/09 07:12:28;;;;;;;58.00;24.33;;;;;;;;;;4912057;29;20051;-78
2023/04/09 07:14:58;;;;;;;58.72;25.10;;;;;;;;;;4920750;29;20193;-78
2023/04/09 07:17:24;;;;;;;55.47;24.15;;;;;;;;;;4919347;29;20135;-79
2023/04/09 07:19:52;;;;;;;54.53;24.23;;;;;;;;;;4904188;29;20087;-80
2023/04/09 07:22:20;;;;;;;58.30;25.20;;;;;;;;;;4915558;29;20048;-79
2023/04/09 07:24:52;;;;;;;54.28;24.42;;;;;;;;;;4922148;29;20047;-77
2023/04/09 07:27:20;;;;;;;61.88;25.25;;;;;;;;;;4911681;29;20044;-78
2023/04/09 07:29:46;;;;;;;54.58;24.42;;;;;;;;;;4908656;29;20151;-76
2023/04/09 07:32:14;;;;;;;53.75;23.67;;;;;;;;;;4913277;29;20103;-78
2023/04/09 07:34:44;;;;;;;54.20;23.83;;;;;;;;;;4926294;29;20074;-77
2023/04/09 07:37:11;;;;;;;54.28;24.20;;;;;;;;;;4939977;28;20060;-75
2023/04/09 07:39:37;;;;;;;57.95;24.45;;;;;;;;;;4932094;29;20220;-77
2023/04/09 07:42:04;;;;;;;56.63;25.98;;;;;;;;;;4906345;29;20240;-78
2023/04/09 07:44:35;;;;;;;60.17;26.88;;;;;;;;;;4912212;29;20048;-79
2023/04/09 07:47:02;;;;;;;53.33;26.02;;;;;;;;;;4913271;29;20067;-79
2023/04/09 07:49:29;;;;;;;49.83;24.08;;;;;;;;;;4910634;29;20080;-79
2023/04/09 07:51:56;;;;;;;51.25;23.55;;;;;;;;;;4910217;29;20048;-79
2023/04/09 07:54:23;;;;;;;48.20;23.95;;;;;;;;;;4921425;29;20527;-79
2023/04/09 07:56:50;;;;;;;44.53;21.65;;;;;;;;;;4914328;29;20059;-78
2023/04/09 07:59:16;;;;;;;41.10;21.33;;;;;;;;;;4908812;29;20044;-78
2023/04/09 08:01:46;;;;;;;46.13;22.92;;;;;;;;;;4909663;29;20067;-78
2023/04/09 08:04:13;;;;;;;44.08;21.92;;;;;;;;;;4893470;29;20123;-78
2023/04/09 08:06:40;;;;;;;43.70;21.83;;;;;;;;;;4898411;29;20052;-79
2023/04/09 08:09:06;;;;;;;43.00;22.13;;;;;;;;;;4921966;29;20385;-79
2023/04/09 08:11:33;;;;;;;45.90;22.48;;;;;;;;;;4919941;29;20063;-79
2023/04/09 08:14:05;;;;;;;42.08;21.30;;;;;;;;;;4928885;29;20047;-78
2023/04/09 08:16:31;;;;;;;44.22;20.60;;;;;;;;;;4951347;29;20043;-79
2023/04/09 08:18:58;;;;;;;38.13;18.90;;;;;;;;;;4934737;29;20054;-78
2023/04/09 08:21:25;;;;;;;39.95;20.40;;;;;;;;;;4916657;29;20080;-80
2023/04/09 08:23:52;;;;;;;38.95;19.95;;;;;;;;;;4902390;29;20458;-78
2023/04/09 08:26:18;;;;;;;37.15;19.63;;;;;;;;;;4933174;29;20055;-79
2023/04/09 08:28:45;;;;;;;40.60;20.35;;;;;;;;;;4917969;29;21626;-76
2023/04/09 08:31:12;;;;;;;37.72;19.70;;;;;;;;;;4933262;29;20146;-79
2023/04/09 08:33:39;;;;;;;37.03;18.70;;;;;;;;;;4933798;29;20070;-79
2023/04/09 08:36:10;;;;;;;40.30;20.42;;;;;;;;;;4934225;29;20124;-79
2023/04/09 08:38:36;;;;;;;37.22;19.67;;;;;;;;;;4934721;29;20131;-78
2023/04/09 08:41:04;;;;;;;35.92;19.40;;;;;;;;;;4935051;29;20500;-79
2023/04/09 08:43:31;;;;;;;34.92;18.60;;;;;;;;;;4934763;29;20150;-79
2023/04/09 08:46:18;;;;;;;36.60;19.00;;;;;;;;;;4935409;29;20420;-78
2023/04/09 08:48:46;;;;;;;33.72;18.38;;;;;;;;;;4935850;29;20142;-79
2023/04/09 08:51:19;;;;;;;37.30;19.02;;;;;;;;;;4937398;29;20458;-77
2023/04/09 08:53:49;;;;;;;36.28;19.67;;;;;;;;;;4936035;29;20159;-78
2023/04/09 08:56:15;;;;;;;35.38;18.52;;;;;;;;;;4935324;29;20051;-79
2023/04/09 08:58:45;;;;;;;33.10;18.45;;;;;;;;;;4935244;29;20043;-80
2023/04/09 09:01:21;;;;;;;29.77;17.92;;;;;;;;;;4935383;29;20048;-79
2023/04/09 09:04:04;;;;;;;32.30;17.90;;;;;;;;;;4936088;29;20051;-80
2023/04/09 09:06:35;;;;;;;32.80;18.13;;;;;;;;;;4937291;29;20139;-79
2023/04/09 09:09:04;;;;;;;35.70;18.63;;;;;;;;;;4936615;29;20122;-80
2023/04/09 09:11:31;;;;;;;37.15;18.80;;;;;;;;;;4936082;29;20047;-79
2023/04/09 09:13:59;;;;;;;32.72;18.05;;;;;;;;;;4935428;29;20060;-79
2023/04/09 09:16:26;;;;;;;33.67;18.38;;;;;;;;;;4935961;29;20054;-79
2023/04/09 09:18:54;;;;;;;31.67;18.35;;;;;;;;;;4917232;29;20758;-79
2023/04/09 09:21:22;;;;;;;31.65;18.40;;;;;;;;;;4933247;29;20051;-79
2023/04/09 09:23:49;;;;;;;32.55;18.13;;;;;;;;;;4924203;29;20513;-79
2023/04/09 09:26:23;;;;;;;33.00;18.13;;;;;;;;;;4934030;29;20051;-79
2023/04/09 09:28:50;;;;;;;32.03;18.17;;;;;;;;;;4918843;29;20040;-78
2023/04/09 09:31:18;;;;;;;31.60;17.77;;;;;;;;;;4900294;29;20062;-78
2023/04/09 09:33:46;;;;;;;34.05;17.90;;;;;;;;;;4931472;29;20059;-79
2023/04/09 09:36:13;;;;;;;31.60;17.33;;;;;;;;;;4932897;29;20044;-78
2023/04/09 09:38:55;;;;;;;27.92;16.00;;;;;;;;;;4931655;29;20054;-79
2023/04/09 09:41:23;;;;;;;27.45;16.17;;;;;;;;;;4932043;29;20139;-79
2023/04/09 09:43:50;;;;;;;28.23;16.50;;;;;;;;;;4932928;29;20428;-77
2023/04/09 09:46:16;;;;;;;30.90;16.88;;;;;;;;;;4940398;29;20052;-79
2023/04/09 09:48:45;;;;;;;29.90;16.98;;;;;;;;;;4938491;29;20134;-78
2023/04/09 09:51:12;;;;;;;31.85;17.50;;;;;;;;;;4931556;29;20130;-78
2023/04/09 09:53:40;;;;;;;27.55;16.70;;;;;;;;;;4934131;29;20047;-78
2023/04/09 09:56:10;;;;;;;31.30;17.42;;;;;;;;;;4933011;29;20039;-79
2023/04/09 09:58:52;;;;;;;33.33;17.17;;;;;;;;;;4933989;29;20514;-79
2023/04/09 10:01:23;;;;;;;29.98;16.83;;;;;;;;;;4934723;29;20434;-79
2023/04/09 10:03:50;;;;;;;30.17;17.08;;;;;;;;;;4932986;29;20154;-78
2023/04/09 10:06:17;;;;;;;30.48;17.17;;;;;;;;;;4934055;29;20430;-79
2023/04/09 10:08:44;;;;;;;29.00;17.50;;;;;;;;;;4933654;29;20056;-77
2023/04/09 10:11:12;;;;;;;28.98;17.75;;;;;;;;;;4933588;29;20061;-77
2023/04/09 10:13:42;;;;;;;27.95;17.15;;;;;;;;;;4934956;29;20054;-78
2023/04/09 10:16:10;;;;;;;26.08;16.10;;;;;;;;;;4932574;29;20039;-79
2023/04/09 10:18:36;;;;;;;25.85;15.88;;;;;;;;;;4932279;29;20578;-77
2023/04/09 10:21:09;;;;;;;25.55;16.67;;;;;;;;;;4935136;29;20055;-79
2023/04/09 10:23:41;;;;;;;26.00;16.40;;;;;;;;;;4923436;29;20103;-79
2023/04/09 10:26:07;;;;;;;25.27;16.25;;;;;;;;;;4932219;29;20055;-80
2023/04/09 10:28:36;;;;;;;25.20;16.65;;;;;;;;;;4917107;29;20048;-79
2023/04/09 10:31:03;;;;;;;24.23;15.68;;;;;;;;;;4930889;29;20115;-79
2023/04/09 10:33:30;;;;;;;25.27;15.70;;;;;;;;;;4915755;29;20067;-78
2023/04/09 10:36:03;;;;;;;23.10;15.65;;;;;;;;;;4935487;29;20064;-78
2023/04/09 10:38:33;;;;;;;23.85;15.55;;;;;;;;;;4944022;29;20086;-79
2023/04/09 10:41:05;;;;;;;23.55;16.00;;;;;;;;;;4934796;29;20222;-78
2023/04/09 10:43:33;;;;;;;23.23;16.15;;;;;;;;;;4917819;29;20044;-78
2023/04/09 10:46:03;;;;;;;21.40;15.10;;;;;;;;;;4932651;29;20055;-78
2023/04/09 10:48:33;;;;;;;20.90;14.70;;;;;;;;;;4932010;29;20527;-79
2023/04/09 10:51:05;;;;;;;22.17;14.73;;;;;;;;;;4934785;29;20118;-78
2023/04/09 10:53:32;;;;;;;18.73;13.02;;;;;;;;;;4933635;29;20044;-79
2023/04/09 10:56:00;;;;;;;19.05;13.90;;;;;;;;;;4933181;29;20249;-79
2023/04/09 10:58:26;;;;;;;20.73;13.90;;;;;;;;;;4934425;29;20122;-77
2023/04/09 11:00:53;;;;;;;18.48;13.30;;;;;;;;;;4916038;29;20058;-80
2023/04/09 11:03:22;;;;;;;17.88;13.38;;;;;;;;;;4933310;29;20052;-80
2023/04/09 11:06:04;;;;;;;21.13;14.32;;;;;;;;;;4934881;29;20446;-79
2023/04/09 11:08:32;;;;;;;20.45;14.20;;;;;;;;;;4933818;29;20107;-80
2023/04/09 11:11:00;;;;;;;18.75;13.43;;;;;;;;;;4916748;29;20452;-79
2023/04/09 11:13:28;;;;;;;19.50;13.88;;;;;;;;;;4933945;29;20138;-79
2023/04/09 11:15:54;;;;;;;16.02;11.95;;;;;;;;;;4931027;29;20036;-79
2023/04/09 11:18:22;;;;;;;18.85;12.52;;;;;;;;;;4931851;29;20389;-79
2023/04/09 11:20:49;;;;;;;15.48;11.02;;;;;;;;;;4931293;29;20043;-79
2023/04/09 11:23:16;;;;;;;15.75;11.60;;;;;;;;;;4908018;29;20039;-79
2023/04/09 11:25:47;;;;;;;16.92;11.85;;;;;;;;;;4926223;29;20408;-80
2023/04/09 11:28:13;;;;;;;16.17;11.68;;;;;;;;;;4934303;29;20048;-80
2023/04/09 11:30:41;;;;;;;15.85;11.85;;;;;;;;;;4934171;29;20046;-80
2023/04/09 11:33:08;;;;;;;15.18;12.00;;;;;;;;;;4933283;29;20063;-79
2023/04/09 11:35:35;;;;;;;14.32;10.20;;;;;;;;;;4933693;29;20301;-80
2023/04/09 11:38:08;;;;;;;15.55;12.05;;;;;;;;;;4919417;29;20107;-79
2023/04/09 11:40:35;;;;;;;15.98;11.82;;;;;;;;;;4944781;29;20114;-79
2023/04/09 11:43:02;;;;;;;18.50;13.35;;;;;;;;;;4928555;29;20445;-79
2023/04/09 11:45:29;;;;;;;16.25;12.50;;;;;;;;;;4935712;29;20064;-79
2023/04/09 11:47:56;;;;;;;15.55;12.13;;;;;;;;;;4933128;29;20054;-78
2023/04/09 11:50:23;;;;;;;15.90;13.02;;;;;;;;;;4933092;29;20075;-78
2023/04/09 11:52:51;;;;;;;17.65;13.30;;;;;;;;;;4933743;29;20035;-78
2023/04/09 11:55:24;;;;;;;17.02;12.18;;;;;;;;;;4915930;29;20131;-79
2023/04/09 11:57:52;;;;;;;18.58;13.98;;;;;;;;;;4931047;29;20047;-78
2023/04/09 12:00:19;;;;;;;17.52;13.27;;;;;;;;;;4930127;29;20416;-78
2023/04/09 12:02:47;;;;;;;18.70;13.63;;;;;;;;;;4932543;29;20058;-78
2023/04/09 12:05:40;;;;;;;16.25;11.50;;;;;;;;;;4915783;29;20071;-79
2023/04/09 12:08:12;;;;;;;16.52;11.57;;;;;;;;;;4933728;29;20043;-80
2023/04/09 12:10:39;;;;;;;16.73;12.80;;;;;;;;;;4935739;29;20055;-80
2023/04/09 12:13:08;;;;;;;16.23;12.40;;;;;;;;;;4937878;29;20051;-80
2023/04/09 12:15:36;;;;;;;15.98;12.10;;;;;;;;;;4935974;29;20059;-79
2023/04/09 12:18:06;;;;;;;16.25;11.32;;;;;;;;;;4935788;29;20077;-78
2023/04/09 12:20:33;;;;;;;15.85;12.65;;;;;;;;;;4935969;29;20044;-78
2023/04/09 12:23:00;;;;;;;16.17;12.45;;;;;;;;;;4929317;29;20139;-79
2023/04/09 12:25:26;;;;;;;14.85;11.30;;;;;;;;;;4909275;29;20052;-78
2023/04/09 12:27:54;;;;;;;14.30;11.40;;;;;;;;;;4916269;29;20477;-78
2023/04/09 12:30:21;;;;;;;14.73;11.35;;;;;;;;;;4914232;29;20056;-79
2023/04/09 12:32:48;;;;;;;14.70;11.23;;;;;;;;;;4915805;29;20056;-79
2023/04/09 12:35:15;;;;;;;14.48;10.80;;;;;;;;;;4915873;29;20048;-79
2023/04/09 12:37:42;;;;;;;15.05;11.23;;;;;;;;;;4916283;29;20496;-79
2023/04/09 12:40:12;;;;;;;14.15;10.80;;;;;;;;;;4915280;29;20056;-80
2023/04/09 12:42:42;;;;;;;16.75;11.60;;;;;;;;;;4901813;29;20540;-79
2023/04/09 12:45:10;;;;;;;13.55;10.75;;;;;;;;;;4919807;29;20060;-80
2023/04/09 12:47:36;;;;;;;15.80;11.68;;;;;;;;;;4921574;29;20497;-79
2023/04/09 12:50:04;;;;;;;15.27;11.25;;;;;;;;;;4916339;29;20048;-79
2023/04/09 12:52:31;;;;;;;14.77;11.25;;;;;;;;;;4916630;29;20071;-78
2023/04/09 12:54:58;;;;;;;15.15;11.55;;;;;;;;;;4918393;29;20052;-79
2023/04/09 12:57:24;;;;;;;12.48;10.02;;;;;;;;;;4916071;29;20514;-79
2023/04/09 12:59:51;;;;;;;15.07;10.88;;;;;;;;;;4914939;29;20497;-79
2023/04/09 13:02:20;;;;;;;14.10;11.00;;;;;;;;;;4917551;29;20089;-77
2023/04/09 13:04:47;;;;;;;16.30;11.18;;;;;;;;;;4899262;29;20449;-80
2023/04/09 13:07:14;;;;;;;14.55;10.77;;;;;;;;;;4915758;29;20064;-78
2023/04/09 13:09:41;;;;;;;13.07;10.20;;;;;;;;;;4916200;29;20123;-79
2023/04/09 13:12:08;;;;;;;13.57;10.73;;;;;;;;;;4916119;29;20055;-79
2023/04/09 13:14:36;;;;;;;13.73;10.07;;;;;;;;;;4914769;29;20048;-79
2023/04/09 13:17:02;;;;;;;13.65;11.05;;;;;;;;;;4915564;29;20070;-77
2023/04/09 13:19:29;;;;;;;14.02;10.98;;;;;;;;;;4911563;29;20067;-78
2023/04/09 13:21:55;;;;;;;16.48;11.70;;;;;;;;;;4915680;29;20448;-78
2023/04/09 13:24:22;;;;;;;17.35;12.10;;;;;;;;;;4925243;29;20067;-79
2023/04/09 13:26:48;;;;;;;14.57;11.50;;;;;;;;;;4934775;29;20052;-79
2023/04/09 13:29:15;;;;;;;15.55;11.88;;;;;;;;;;4933222;29;20054;-79
2023/04/09 13:31:41;;;;;;;16.30;11.95;;;;;;;;;;4935257;29;20580;-78
2023/04/09 13:34:08;;;;;;;16.50;11.52;;;;;;;;;;4934665;29;20044;-79
2023/04/09 13:36:35;;;;;;;16.20;11.30;;;;;;;;;;4935181;29;20032;-78
2023/04/09 13:39:04;;;;;;;15.73;11.40;;;;;;;;;;4934414;29;20047;-80
2023/04/09 13:41:31;;;;;;;14.13;11.20;;;;;;;;;;4932197;29;20412;-78
2023/04/09 13:43:58;;;;;;;12.98;10.02;;;;;;;;;;4932902;29;20059;-77
2023/04/09 13:46:25;;;;;;;13.90;10.38;;;;;;;;;;4934600;29;20039;-79
2023/04/09 13:48:51;;;;;;;13.80;10.55;;;;;;;;;;4932912;29;20044;-78
2023/04/09 13:51:21;;;;;;;16.48;12.10;;;;;;;;;;4919274;29;20052;-79
2023/04/09 13:53:48;;;;;;;14.88;11.25;;;;;;;;;;4921693;29;20493;-78
2023/04/09 13:56:15;;;;;;;13.52;10.70;;;;;;;;;;4916188;29;20060;-79
2023/04/09 13:58:42;;;;;;;15.00;11.18;;;;;;;;;;4914216;29;20072;-78
2023/04/09 14:01:09;;;;;;;15.07;10.80;;;;;;;;;;4912986;29;20048;-78
2023/04/09 14:03:38;;;;;;;13.65;10.48;;;;;;;;;;4914197;29;20064;-79
2023/04/09 14:06:07;;;;;;;13.95;10.52;;;;;;;;;;4913849;29;20044;-80
2023/04/09 14:08:34;;;;;;;14.73;10.85;;;;;;;;;;4913893;29;20044;-78
2023/04/09 14:11:01;;;;;;;14.60;10.60;;;;;;;;;;4915327;29;20521;-78
2023/04/09 14:13:27;;;;;;;16.15;11.07;;;;;;;;;;4913092;29;20107;-77
2023/04/09 14:15:54;;;;;;;14.02;9.60;;;;;;;;;;4911828;29;20096;-78
2023/04/09 14:18:25;;;;;;;12.98;9.25;;;;;;;;;;4912946;29;20536;-78
2023/04/09 14:20:52;;;;;;;14.45;10.30;;;;;;;;;;4913106;29;20044;-79
2023/04/09 14:23:19;;;;;;;14.50;10.65;;;;;;;;;;4924570;29;20047;-79
2023/04/09 14:25:46;;;;;;;14.18;10.25;;;;;;;;;;4920807;29;20572;-78